Bunker Hill, Illinois
Current Conditions -  °F | °C
As of 8:50 AM on Saturday 25 Oct 2014 (Local Time) from KALN Reporting Station
Haze Haze  
Wind Chill: 61°   Ceiling: Unl
Heat Index: 61°   Visibility: 5mi
Dew Point: 61°   Wind: 6mph
Humidity: 100%   Direction: 250°WSW
Pressure: 30.04"   Gusts: NA
Location:  39.04°N, 89.95°W
Report Text: KALN 251350Z 25005KT 5SM BR SKC 16/16 A3004
Loading
Personal Weather Stations






























Interactive Weather Map
Tropical Storm Tracking
New forecast layout! Learn more

10-Day Weather Forecast

Advertisements
Track Severe Weather on mobile